Time;durP1;ratioP1;P1;durP2;ratioP2;P2;SDS_P1;SDS_P2;PMS_P1;PMS_P2;Temp;Humidity;BMP_temperature;BMP_pressure;BME280_temperature;BME280_humidity;BME280_pressure;Samples;Min_cycle;Max_cycle;Signal;HPM_P1;HPM_P2
2022/06/24 00:00:50;;;;;;;;;;;20.40;82.70;;;;;;6094152;23;19921;-81
2022/06/24 00:03:17;;;;;;;;;;;20.40;82.60;;;;;;6125282;23;19925;-81
2022/06/24 00:05:46;;;;;;;;;;;20.40;82.70;;;;;;6115707;23;19980;-81
2022/06/24 00:08:13;;;;;;;;;;;20.30;82.20;;;;;;6096759;23;19921;-81
2022/06/24 00:10:40;;;;;;;;;;;20.30;81.80;;;;;;6116638;23;19921;-80
2022/06/24 00:13:07;;;;;;;;;;;20.30;81.30;;;;;;6095792;23;19925;-81
2022/06/24 00:15:34;;;;;;;;;;;20.30;80.90;;;;;;6117781;23;19949;-80
2022/06/24 00:18:30;;;;;;;;;;;20.30;80.40;;;;;;6094946;23;20338;-80
2022/06/24 00:20:57;;;;;;;;;;;20.30;80.00;;;;;;6070183;23;19920;-80
2022/06/24 00:23:26;;;;;;;;;;;20.30;80.00;;;;;;6095472;23;19925;-80
2022/06/24 00:25:53;;;;;;;;;;;20.30;79.90;;;;;;6095383;23;19921;-81
2022/06/24 00:28:24;;;;;;;;;;;20.30;79.80;;;;;;6094850;23;19921;-81
2022/06/24 00:30:52;;;;;;;;;;;20.30;79.80;;;;;;6095030;23;19921;-81
2022/06/24 00:33:21;;;;;;;;;;;20.30;79.60;;;;;;6070392;23;19947;-80
2022/06/24 00:35:49;;;;;;;;;;;20.30;79.60;;;;;;6095019;23;19921;-80
2022/06/24 00:38:22;;;;;;;;;;;20.30;79.50;;;;;;6094039;23;19922;-80
2022/06/24 00:40:52;;;;;;;;;;;20.30;79.60;;;;;;6094552;23;19932;-80
2022/06/24 00:43:39;;;;;;;;;;;20.30;79.70;;;;;;6094323;23;20310;-80
2022/06/24 00:46:32;;;;;;;;;;;20.30;79.90;;;;;;6077522;23;20251;-81
2022/06/24 00:48:59;;;;;;;;;;;20.20;79.70;;;;;;6082912;23;20297;-81
2022/06/24 00:51:33;;;;;;;;;;;20.20;79.70;;;;;;6098710;23;19921;-81
2022/06/24 00:54:06;;;;;;;;;;;20.20;79.80;;;;;;6101601;23;19925;-80
2022/06/24 00:56:33;;;;;;;;;;;20.20;79.60;;;;;;6087086;23;19920;-81
2022/06/24 00:59:01;;;;;;;;;;;20.30;79.80;;;;;;6077848;23;20342;-81
2022/06/24 01:01:38;;;;;;;;;;;20.30;79.60;;;;;;6097341;23;19932;-81
2022/06/24 01:04:09;;;;;;;;;;;20.20;79.70;;;;;;6099948;23;19921;-81
2022/06/24 01:06:41;;;;;;;;;;;20.20;80.30;;;;;;6082969;23;19926;-81
2022/06/24 01:09:08;;;;;;;;;;;20.20;80.10;;;;;;6095040;23;19985;-81
2022/06/24 01:11:42;;;;;;;;;;;20.30;80.20;;;;;;6094196;23;19921;-81
2022/06/24 01:14:09;;;;;;;;;;;20.30;79.70;;;;;;6095252;23;20290;-80
2022/06/24 01:16:36;;;;;;;;;;;20.30;79.50;;;;;;6093258;23;19922;-81
2022/06/24 01:19:04;;;;;;;;;;;20.30;79.30;;;;;;6094465;23;19960;-81
2022/06/24 01:21:38;;;;;;;;;;;20.30;79.10;;;;;;6093529;23;19985;-81
2022/06/24 01:24:06;;;;;;;;;;;20.30;79.00;;;;;;6094168;23;19921;-80
2022/06/24 01:26:33;;;;;;;;;;;20.30;79.00;;;;;;6093727;23;19921;-80
2022/06/24 01:29:08;;;;;;;;;;;20.30;79.30;;;;;;6094260;23;19996;-81
2022/06/24 01:31:38;;;;;;;;;;;20.30;79.70;;;;;;6093743;23;19976;-80
2022/06/24 01:34:05;;;;;;;;;;;20.30;80.20;;;;;;6094203;23;19921;-80
2022/06/24 01:36:32;;;;;;;;;;;20.20;80.60;;;;;;6093648;23;19929;-80
2022/06/24 01:38:59;;;;;;;;;;;20.20;80.80;;;;;;6096081;23;19922;-80
2022/06/24 01:41:25;;;;;;;;;;;20.20;81.00;;;;;;6093328;23;19968;-81
2022/06/24 01:43:52;;;;;;;;;;;20.20;81.20;;;;;;6096232;23;19921;-81
2022/06/24 01:46:19;;;;;;;;;;;20.20;81.50;;;;;;6094640;23;19981;-80
2022/06/24 01:48:46;;;;;;;;;;;20.20;81.90;;;;;;6094771;23;19996;-80
2022/06/24 01:51:14;;;;;;;;;;;20.20;82.00;;;;;;6094339;23;19952;-81
2022/06/24 01:53:41;;;;;;;;;;;20.20;82.00;;;;;;6094052;23;19921;-81
2022/06/24 01:56:08;;;;;;;;;;;20.20;82.50;;;;;;6094048;23;20354;-81
2022/06/24 01:58:34;;;;;;;;;;;20.20;82.70;;;;;;6094878;23;19925;-81
2022/06/24 02:01:01;;;;;;;;;;;20.20;82.90;;;;;;6094679;23;19945;-80
2022/06/24 02:03:29;;;;;;;;;;;20.20;83.10;;;;;;6093730;23;19929;-80
2022/06/24 02:05:58;;;;;;;;;;;20.20;83.40;;;;;;6094280;23;19956;-80
2022/06/24 02:08:24;;;;;;;;;;;20.20;83.50;;;;;;6093546;23;19925;-81
2022/06/24 02:13:36;;;;;;;;;;;20.20;83.60;;;;;;6095234;23;19925;-81
2022/06/24 02:16:04;;;;;;;;;;;20.30;83.70;;;;;;6093696;23;19925;-80
2022/06/24 02:18:31;;;;;;;;;;;20.30;83.70;;;;;;6095143;23;19949;-80
2022/06/24 02:20:59;;;;;;;;;;;20.30;83.80;;;;;;6094607;23;19944;-80
2022/06/24 02:23:26;;;;;;;;;;;20.30;83.80;;;;;;6092975;23;19932;-80
2022/06/24 02:25:54;;;;;;;;;;;20.30;82.50;;;;;;6094307;23;19922;-80
2022/06/24 02:28:21;;;;;;;;;;;20.30;81.60;;;;;;6093851;23;19921;-80
2022/06/24 02:30:51;;;;;;;;;;;20.30;81.00;;;;;;6094542;23;19928;-80
2022/06/24 02:33:17;;;;;;;;;;;20.30;80.00;;;;;;6093973;23;20369;-80
2022/06/24 02:35:45;;;;;;;;;;;20.30;79.90;;;;;;6117855;23;20418;-80
2022/06/24 02:38:11;;;;;;;;;;;20.30;79.60;;;;;;6092918;23;20353;-81
2022/06/24 02:40:51;;;;;;;;;;;20.30;79.30;;;;;;6074672;23;19922;-80
2022/06/24 02:43:19;;;;;;;;;;;20.30;79.20;;;;;;6111683;23;19949;-80
2022/06/24 02:45:48;;;;;;;;;;;20.30;79.40;;;;;;6093597;23;19925;-81
2022/06/24 02:48:15;;;;;;;;;;;20.30;79.70;;;;;;6076689;23;20266;-81
2022/06/24 02:50:43;;;;;;;;;;;20.30;80.00;;;;;;6093607;23;19936;-80
2022/06/24 02:53:12;;;;;;;;;;;20.30;80.00;;;;;;6093678;23;19928;-80
2022/06/24 02:55:39;;;;;;;;;;;20.30;80.00;;;;;;6093636;23;20617;-80
2022/06/24 02:58:06;;;;;;;;;;;20.30;80.00;;;;;;6093445;23;20310;-81
2022/06/24 03:00:33;;;;;;;;;;;20.30;80.40;;;;;;6094977;23;19977;-80
2022/06/24 03:03:03;;;;;;;;;;;20.30;80.40;;;;;;6094419;23;19921;-81
2022/06/24 03:05:29;;;;;;;;;;;20.30;80.50;;;;;;6068877;23;19980;-81
2022/06/24 03:07:56;;;;;;;;;;;20.30;80.30;;;;;;6094184;23;19972;-80
2022/06/24 03:10:23;;;;;;;;;;;20.30;80.10;;;;;;6092978;23;19976;-81
2022/06/24 03:12:50;;;;;;;;;;;20.30;79.70;;;;;;6094558;23;19925;-80
2022/06/24 03:15:17;;;;;;;;;;;20.30;79.30;;;;;;6094053;23;19969;-81
2022/06/24 03:17:44;;;;;;;;;;;20.30;79.30;;;;;;6094323;23;19936;-81
2022/06/24 03:20:10;;;;;;;;;;;20.30;80.00;;;;;;6095963;23;19921;-80
2022/06/24 03:22:37;;;;;;;;;;;20.40;78.90;;;;;;6094555;23;19925;-81
2022/06/24 03:25:05;;;;;;;;;;;20.30;78.70;;;;;;6095865;23;19925;-80
2022/06/24 03:27:32;;;;;;;;;;;20.30;78.50;;;;;;6094965;23;20406;-80
2022/06/24 03:29:59;;;;;;;;;;;20.30;78.50;;;;;;6095920;23;19925;-80
2022/06/24 03:32:27;;;;;;;;;;;20.40;78.30;;;;;;6096024;23;19922;-81
2022/06/24 03:34:54;;;;;;;;;;;20.40;78.10;;;;;;6096121;23;19925;-81
2022/06/24 03:37:21;;;;;;;;;;;20.30;78.00;;;;;;6095689;23;19922;-81
2022/06/24 03:39:48;;;;;;;;;;;20.40;77.80;;;;;;6094948;23;20393;-81
2022/06/24 03:42:15;;;;;;;;;;;20.40;77.70;;;;;;6071520;23;19925;-81
2022/06/24 03:44:42;;;;;;;;;;;20.40;77.70;;;;;;6094880;23;19972;-80
2022/06/24 03:47:11;;;;;;;;;;;20.40;77.70;;;;;;6094626;23;20010;-81
2022/06/24 03:49:38;;;;;;;;;;;20.40;78.40;;;;;;6095115;23;20402;-80
2022/06/24 03:52:08;;;;;;;;;;;20.40;77.40;;;;;;6095545;23;19925;-81
2022/06/24 03:54:35;;;;;;;;;;;20.40;77.20;;;;;;6095015;23;19925;-81
2022/06/24 03:57:02;;;;;;;;;;;20.40;77.00;;;;;;6096895;23;19922;-81
2022/06/24 03:59:29;;;;;;;;;;;20.40;77.00;;;;;;6094991;23;19932;-81
2022/06/24 04:01:56;;;;;;;;;;;20.40;76.80;;;;;;6095689;23;19949;-81
2022/06/24 04:04:24;;;;;;;;;;;20.40;76.70;;;;;;6095417;23;19988;-81
2022/06/24 04:06:50;;;;;;;;;;;20.40;76.50;;;;;;6094873;23;19922;-81
2022/06/24 04:09:18;;;;;;;;;;;20.40;76.00;;;;;;6095720;23;20278;-81
2022/06/24 04:11:45;;;;;;;;;;;20.40;75.90;;;;;;6094580;23;19929;-81
2022/06/24 04:14:12;;;;;;;;;;;20.40;76.00;;;;;;6095632;23;19925;-81
2022/06/24 04:16:39;;;;;;;;;;;20.50;75.80;;;;;;6094809;23;19972;-81
2022/06/24 04:19:06;;;;;;;;;;;20.50;75.60;;;;;;6095229;23;19996;-80
2022/06/24 04:21:33;;;;;;;;;;;20.50;75.60;;;;;;6094908;23;19973;-81
2022/06/24 04:23:59;;;;;;;;;;;20.50;75.40;;;;;;6095239;23;19955;-81
2022/06/24 04:26:26;;;;;;;;;;;20.60;75.20;;;;;;6095454;23;20402;-80
2022/06/24 04:28:53;;;;;;;;;;;20.60;75.20;;;;;;6118107;23;19921;-81
2022/06/24 04:31:20;;;;;;;;;;;20.60;75.30;;;;;;6094133;23;19996;-81
2022/06/24 04:33:46;;;;;;;;;;;20.60;75.10;;;;;;6075415;23;20302;-81
2022/06/24 04:36:14;;;;;;;;;;;20.60;74.80;;;;;;6115453;23;19929;-81
2022/06/24 04:38:41;;;;;;;;;;;20.60;74.60;;;;;;6096734;23;20235;-81
2022/06/24 04:41:16;;;;;;;;;;;20.60;74.50;;;;;;6115829;23;19984;-81
2022/06/24 04:43:43;;;;;;;;;;;20.60;74.60;;;;;;6097187;23;20298;-81
2022/06/24 04:46:10;;;;;;;;;;;20.60;74.60;;;;;;6116078;23;19988;-81
2022/06/24 04:48:39;;;;;;;;;;;20.60;74.50;;;;;;6095864;23;20397;-81
2022/06/24 04:51:10;;;;;;;;;;;20.60;74.50;;;;;;6126229;23;19921;-81
2022/06/24 04:53:37;;;;;;;;;;;20.60;74.30;;;;;;6110725;23;19921;-80
2022/06/24 04:56:04;;;;;;;;;;;20.60;74.00;;;;;;6117406;23;19921;-80
2022/06/24 04:58:30;;;;;;;;;;;20.70;73.80;;;;;;6094336;23;19972;-81
2022/06/24 05:00:58;;;;;;;;;;;20.70;73.90;;;;;;6118720;23;19928;-81
2022/06/24 05:03:25;;;;;;;;;;;20.70;73.90;;;;;;6093956;23;19925;-81
2022/06/24 05:05:52;;;;;;;;;;;20.70;73.90;;;;;;6075471;23;19944;-81
2022/06/24 05:08:18;;;;;;;;;;;20.70;73.90;;;;;;6113965;23;20302;-81
2022/06/24 05:10:47;;;;;;;;;;;20.70;74.00;;;;;;6097893;23;20347;-80
2022/06/24 05:13:14;;;;;;;;;;;20.80;74.20;;;;;;6115024;23;20306;-81
2022/06/24 05:15:41;;;;;;;;;;;20.80;74.30;;;;;;6081980;23;19921;-80
2022/06/24 05:18:08;;;;;;;;;;;20.80;74.30;;;;;;6070348;23;19944;-81
2022/06/24 05:20:34;;;;;;;;;;;20.90;74.30;;;;;;6094141;23;19948;-81
2022/06/24 05:23:01;;;;;;;;;;;20.90;74.30;;;;;;6117852;23;19988;-81
2022/06/24 05:25:28;;;;;;;;;;;20.90;74.30;;;;;;6094140;23;19932;-81
2022/06/24 05:27:55;;;;;;;;;;;20.90;74.60;;;;;;6074902;23;19940;-81
2022/06/24 05:30:22;;;;;;;;;;;20.90;74.60;;;;;;6101690;23;20255;-81
2022/06/24 05:32:49;;;;;;;;;;;20.90;74.60;;;;;;6109156;23;19979;-81
2022/06/24 05:35:16;;;;;;;;;;;21.00;74.80;;;;;;6115000;23;19921;-81
2022/06/24 05:37:43;;;;;;;;;;;21.00;74.90;;;;;;6095789;23;20302;-81
2022/06/24 05:40:10;;;;;;;;;;;21.00;75.20;;;;;;6116478;23;20342;-81
2022/06/24 05:42:37;;;;;;;;;;;21.00;75.20;;;;;;6094532;23;19976;-81
2022/06/24 05:45:04;;;;;;;;;;;21.00;75.20;;;;;;6117420;23;19932;-81
2022/06/24 05:47:33;;;;;;;;;;;21.00;74.90;;;;;;6093764;23;19921;-81
2022/06/24 05:49:59;;;;;;;;;;;20.90;75.00;;;;;;6118408;23;19976;-81
2022/06/24 05:55:11;;;;;;;;;;;20.90;75.50;;;;;;6124424;23;19987;-82
2022/06/24 05:57:38;;;;;;;;;;;20.80;75.70;;;;;;6113422;23;19925;-81
2022/06/24 06:00:06;;;;;;;;;;;20.80;76.70;;;;;;6081304;23;20358;-81
2022/06/24 06:02:33;;;;;;;;;;;20.80;80.50;;;;;;6070847;23;19929;-81
2022/06/24 06:05:00;;;;;;;;;;;20.80;80.70;;;;;;6096246;23;19928;-81
2022/06/24 06:07:27;;;;;;;;;;;20.80;81.10;;;;;;6116028;23;19972;-84
2022/06/24 06:09:55;;;;;;;;;;;20.80;80.90;;;;;;6094134;23;19928;-82
2022/06/24 06:12:22;;;;;;;;;;;20.80;81.00;;;;;;6116406;23;19921;-83
2022/06/24 06:14:49;;;;;;;;;;;20.80;82.00;;;;;;6093344;23;19929;-82
2022/06/24 06:17:16;;;;;;;;;;;20.80;81.80;;;;;;6117464;23;19953;-82
2022/06/24 06:19:42;;;;;;;;;;;20.70;82.00;;;;;;6093451;23;19968;-80
2022/06/24 06:22:09;;;;;;;;;;;20.70;82.70;;;;;;6123994;23;20309;-84
2022/06/24 06:24:36;;;;;;;;;;;20.70;83.10;;;;;;6114149;23;19921;-84
2022/06/24 06:27:03;;;;;;;;;;;20.70;83.50;;;;;;6096389;23;19928;-85
2022/06/24 06:29:33;;;;;;;;;;;20.70;84.40;;;;;;6114690;23;20302;-84
2022/06/24 06:31:59;;;;;;;;;;;20.70;84.40;;;;;;6096081;23;20309;-85
2022/06/24 06:34:26;;;;;;;;;;;20.60;84.40;;;;;;6115933;23;19928;-86
2022/06/24 06:36:53;;;;;;;;;;;20.60;84.90;;;;;;6094326;23;19921;-85
2022/06/24 06:39:20;;;;;;;;;;;20.60;85.30;;;;;;6117715;23;19989;-85
2022/06/24 06:41:46;;;;;;;;;;;20.60;85.80;;;;;;6094043;23;19968;-86
2022/06/24 06:44:15;;;;;;;;;;;20.60;87.20;;;;;;6074990;23;19925;-87
2022/06/24 06:46:42;;;;;;;;;;;20.60;88.10;;;;;;6113984;23;19922;-86
2022/06/24 06:49:09;;;;;;;;;;;20.60;87.10;;;;;;6123125;23;19968;-86
2022/06/24 06:51:36;;;;;;;;;;;20.60;87.00;;;;;;6114783;23;20342;-85
2022/06/24 06:54:03;;;;;;;;;;;20.70;86.90;;;;;;6097827;23;19921;-85
2022/06/24 06:56:30;;;;;;;;;;;20.70;87.00;;;;;;6117225;23;19973;-85
2022/06/24 06:58:56;;;;;;;;;;;20.70;87.20;;;;;;6096763;23;19928;-86
2022/06/24 07:01:23;;;;;;;;;;;20.80;88.40;;;;;;6119602;23;19925;-85
2022/06/24 07:03:50;;;;;;;;;;;20.80;88.40;;;;;;6096170;23;19921;-85
2022/06/24 07:06:17;;;;;;;;;;;20.80;87.70;;;;;;6100784;23;19928;-84
2022/06/24 07:08:44;;;;;;;;;;;20.80;87.40;;;;;;6114994;23;19921;-86
2022/06/24 07:11:11;;;;;;;;;;;20.90;87.30;;;;;;6099612;23;20365;-86
2022/06/24 07:13:38;;;;;;;;;;;20.90;87.00;;;;;;6116251;23;19927;-86
2022/06/24 07:16:09;;;;;;;;;;;21.00;86.90;;;;;;6097689;23;20356;-86
2022/06/24 07:18:36;;;;;;;;;;;21.00;86.70;;;;;;6116779;23;20398;-85
2022/06/24 07:21:03;;;;;;;;;;;21.10;86.40;;;;;;6122924;23;19921;-85
2022/06/24 07:23:30;;;;;;;;;;;21.10;87.30;;;;;;6117954;23;20262;-85
2022/06/24 07:25:57;;;;;;;;;;;21.20;87.50;;;;;;6096037;23;19920;-85
2022/06/24 07:28:28;;;;;;;;;;;21.20;88.70;;;;;;6119984;23;19922;-85
2022/06/24 07:30:55;;;;;;;;;;;21.20;88.00;;;;;;6120355;23;19932;-86
2022/06/24 07:33:23;;;;;;;;;;;21.30;87.60;;;;;;6119901;23;19928;-86
2022/06/24 07:35:50;;;;;;;;;;;21.30;87.30;;;;;;6094955;23;19924;-86
2022/06/24 07:38:19;;;;;;;;;;;21.30;87.60;;;;;;6111814;23;19925;-85
2022/06/24 07:40:45;;;;;;;;;;;21.40;88.10;;;;;;6114985;23;19932;-84
2022/06/24 07:43:12;;;;;;;;;;;21.40;88.70;;;;;;6098670;23;20425;-85
2022/06/24 07:45:39;;;;;;;;;;;21.40;88.70;;;;;;6126134;23;19928;-84
2022/06/24 07:48:06;;;;;;;;;;;21.50;87.80;;;;;;6111957;23;20336;-84
2022/06/24 07:50:33;;;;;;;;;;;21.60;88.20;;;;;;6100636;23;19921;-84
2022/06/24 07:52:59;;;;;;;;;;;21.70;87.70;;;;;;6112208;23;20000;-84
2022/06/24 07:58:12;;;;;;;;;;;21.90;86.70;;;;;;6123243;23;19921;-84
2022/06/24 08:00:39;;;;;;;;;;;22.00;86.00;;;;;;6116138;23;19925;-85
2022/06/24 08:03:05;;;;;;;;;;;22.10;85.60;;;;;;6096105;23;19989;-83
2022/06/24 08:05:32;;;;;;;;;;;22.10;85.30;;;;;;6117221;23;19928;-84
2022/06/24 08:08:01;;;;;;;;;;;22.20;84.90;;;;;;6095248;23;19929;-83
2022/06/24 08:10:28;;;;;;;;;;;22.20;84.60;;;;;;6118825;23;19928;-83
2022/06/24 08:12:55;;;;;;;;;;;22.30;84.90;;;;;;6095789;23;19929;-83
2022/06/24 08:15:22;;;;;;;;;;;22.30;84.20;;;;;;6083070;23;19985;-84
2022/06/24 08:17:49;;;;;;;;;;;22.30;83.10;;;;;;6094161;23;19928;-84
2022/06/24 08:20:15;;;;;;;;;;;22.30;83.10;;;;;;6084213;23;19921;-83
2022/06/24 08:22:42;;;;;;;;;;;22.30;82.90;;;;;;6071936;23;19921;-84
2022/06/24 08:25:09;;;;;;;;;;;22.30;82.50;;;;;;6094605;23;19953;-83
2022/06/24 08:27:51;;;;;;;;;;;22.30;81.50;;;;;;6095516;23;19960;-84
2022/06/24 08:30:18;;;;;;;;;;;22.40;81.20;;;;;;6094678;23;19929;-83
2022/06/24 08:32:45;;;;;;;;;;;22.40;81.10;;;;;;6095477;23;19929;-83
2022/06/24 08:35:12;;;;;;;;;;;22.50;81.20;;;;;;6094597;23;20303;-82
2022/06/24 08:37:54;;;;;;;;;;;22.50;81.40;;;;;;6095167;23;19972;-84
2022/06/24 08:40:21;;;;;;;;;;;22.60;81.30;;;;;;6094425;23;20330;-83
2022/06/24 08:42:54;;;;;;;;;;;22.70;81.30;;;;;;6096831;23;19925;-84
2022/06/24 08:45:22;;;;;;;;;;;22.70;80.80;;;;;;6073168;23;19921;-83
2022/06/24 08:47:49;;;;;;;;;;;22.80;79.90;;;;;;6037836;23;20300;-83
2022/06/24 08:50:16;;;;;;;;;;;22.90;79.90;;;;;;6036981;23;19922;-82
2022/06/24 08:52:48;;;;;;;;;;;23.00;80.00;;;;;;6037984;23;19928;-83
2022/06/24 08:55:21;;;;;;;;;;;23.20;80.00;;;;;;6037375;23;20292;-82
2022/06/24 08:57:48;;;;;;;;;;;23.40;78.80;;;;;;6039209;23;19922;-83
2022/06/24 09:00:16;;;;;;;;;;;23.40;77.80;;;;;;6036867;23;19922;-82
2022/06/24 09:02:43;;;;;;;;;;;23.50;77.10;;;;;;6037855;23;19974;-82
2022/06/24 09:05:11;;;;;;;;;;;23.60;76.50;;;;;;6036720;23;19922;-83
2022/06/24 09:07:38;;;;;;;;;;;23.60;76.80;;;;;;6037825;23;20299;-82
2022/06/24 09:10:06;;;;;;;;;;;23.60;76.60;;;;;;6037111;23;19933;-82
2022/06/24 09:12:36;;;;;;;;;;;23.60;76.00;;;;;;6038597;23;19930;-82
2022/06/24 09:15:04;;;;;;;;;;;23.80;76.60;;;;;;6036401;23;19929;-81
2022/06/24 09:17:31;;;;;;;;;;;24.00;74.30;;;;;;6037342;23;19929;-82
2022/06/24 09:20:18;;;;;;;;;;;24.10;73.30;;;;;;6037666;23;20292;-82
2022/06/24 09:23:06;;;;;;;;;;;24.30;72.30;;;;;;6054511;23;20299;-84
2022/06/24 09:25:49;;;;;;;;;;;24.50;70.40;;;;;;6060956;23;19922;-82
2022/06/24 09:28:32;;;;;;;;;;;24.70;70.60;;;;;;6066076;23;19929;-82
2022/06/24 09:31:09;;;;;;;;;;;25.00;69.50;;;;;;6065622;23;19925;-84
2022/06/24 09:33:37;;;;;;;;;;;25.20;68.50;;;;;;6066461;23;19973;-84
2022/06/24 09:36:05;;;;;;;;;;;25.50;69.50;;;;;;6061293;23;19933;-83
2022/06/24 09:38:32;;;;;;;;;;;25.90;69.80;;;;;;6061831;23;19929;-83
2022/06/24 09:41:00;;;;;;;;;;;26.20;66.80;;;;;;6088861;23;20331;-83
2022/06/24 09:43:28;;;;;;;;;;;26.40;66.60;;;;;;6065914;23;19922;-82
2022/06/24 09:45:55;;;;;;;;;;;26.60;65.00;;;;;;6083002;23;19932;-82
2022/06/24 09:48:27;;;;;;;;;;;26.70;64.20;;;;;;6065970;23;19946;-82
2022/06/24 09:50:57;;;;;;;;;;;26.80;63.20;;;;;;6065423;23;19976;-82
2022/06/24 09:53:25;;;;;;;;;;;26.80;62.90;;;;;;6067294;23;19922;-82
2022/06/24 09:55:53;;;;;;;;;;;26.90;64.00;;;;;;6064875;23;19953;-82
2022/06/24 09:58:20;;;;;;;;;;;27.00;62.30;;;;;;6065650;23;20251;-82
2022/06/24 10:00:48;;;;;;;;;;;26.90;61.60;;;;;;6064845;23;20004;-82
2022/06/24 10:03:15;;;;;;;;;;;26.80;60.50;;;;;;6066817;23;19925;-81
2022/06/24 10:05:47;;;;;;;;;;;26.90;62.70;;;;;;6065164;23;19928;-82
2022/06/24 10:08:14;;;;;;;;;;;26.80;61.50;;;;;;6065429;23;19953;-82
2022/06/24 10:10:51;;;;;;;;;;;26.80;62.40;;;;;;6064978;23;19922;-82
2022/06/24 10:13:22;;;;;;;;;;;26.70;62.40;;;;;;6065637;23;19926;-82
2022/06/24 10:15:50;;;;;;;;;;;26.70;62.90;;;;;;6065324;23;20373;-82
2022/06/24 10:18:19;;;;;;;;;;;26.60;63.20;;;;;;6065201;23;19921;-82
2022/06/24 10:20:46;;;;;;;;;;;26.60;62.90;;;;;;6065043;23;19961;-82
2022/06/24 10:23:32;;;;;;;;;;;26.50;63.00;;;;;;6065543;23;19973;-82
2022/06/24 10:26:07;;;;;;;;;;;26.40;63.90;;;;;;6064932;23;19921;-82
2022/06/24 10:28:54;;;;;;;;;;;26.40;64.00;;;;;;6066822;23;19921;-82
2022/06/24 10:31:21;;;;;;;;;;;26.40;63.30;;;;;;6078266;23;19926;-82
2022/06/24 10:33:54;;;;;;;;;;;26.40;62.60;;;;;;6065488;23;19922;-82
2022/06/24 10:36:33;;;;;;;;;;;26.30;62.70;;;;;;6064981;23;19922;-82
2022/06/24 10:39:10;;;;;;;;;;;26.20;63.10;;;;;;6041404;23;19926;-82
2022/06/24 10:41:37;;;;;;;;;;;26.20;63.60;;;;;;6065783;23;19921;-82
2022/06/24 10:44:22;;;;;;;;;;;26.00;63.10;;;;;;6065760;23;19964;-81
2022/06/24 10:47:04;;;;;;;;;;;25.90;62.70;;;;;;6095307;23;20302;-82
2022/06/24 10:50:11;;;;;;;;;;;25.70;62.70;;;;;;6081477;23;19977;-82
2022/06/24 10:52:37;;;;;;;;;;;25.50;62.90;;;;;;6111577;23;19972;-82
2022/06/24 10:55:16;;;;;;;;;;;25.30;64.40;;;;;;6099352;23;19954;-82
2022/06/24 10:57:44;;;;;;;;;;;25.10;65.00;;;;;;6098601;23;20439;-82
2022/06/24 11:00:11;;;;;;;;;;;24.80;65.90;;;;;;6124382;23;19925;-82
2022/06/24 11:02:38;;;;;;;;;;;24.60;66.70;;;;;;6098632;23;19921;-82
2022/06/24 11:05:08;;;;;;;;;;;24.40;67.40;;;;;;6114379;23;19944;-82
2022/06/24 11:07:34;;;;;;;;;;;24.30;67.90;;;;;;6097030;23;19975;-82
2022/06/24 11:10:14;;;;;;;;;;;24.30;68.60;;;;;;6114949;23;20262;-82
2022/06/24 11:12:40;;;;;;;;;;;24.20;69.30;;;;;;6098086;23;19921;-86
2022/06/24 11:15:07;;;;;;;;;;;24.20;71.20;;;;;;6113664;23;19925;-87
2022/06/24 11:17:38;;;;;;;;;;;24.10;71.00;;;;;;6097139;23;19928;-87
2022/06/24 11:20:06;;;;;;;;;;;24.00;71.70;;;;;;6114579;23;19964;-86
2022/06/24 11:22:40;;;;;;;;;;;24.00;72.50;;;;;;6096174;23;20397;-86
2022/06/24 11:25:08;;;;;;;;;;;23.90;73.40;;;;;;6114332;23;19956;-87
2022/06/24 11:27:36;;;;;;;;;;;23.80;74.30;;;;;;6097178;23;19932;-86
2022/06/24 11:30:03;;;;;;;;;;;23.60;74.00;;;;;;6114931;23;19929;-88
2022/06/24 11:32:49;;;;;;;;;;;23.60;74.60;;;;;;6095694;23;19924;-86
2022/06/24 11:35:17;;;;;;;;;;;23.50;75.00;;;;;;6112254;23;19921;-85
2022/06/24 11:37:44;;;;;;;;;;;23.40;76.00;;;;;;6098407;23;19921;-89
2022/06/24 11:40:21;;;;;;;;;;;23.30;76.80;;;;;;6088776;23;19929;-88
2022/06/24 11:42:48;;;;;;;;;;;23.20;77.70;;;;;;6083251;23;19921;-84
2022/06/24 11:45:14;;;;;;;;;;;23.10;78.40;;;;;;6093517;23;19929;-85
2022/06/24 11:47:46;;;;;;;;;;;22.90;79.00;;;;;;6096095;23;19925;-82
2022/06/24 11:50:19;;;;;;;;;;;22.60;77.20;;;;;;6095806;23;19976;-82
2022/06/24 11:52:47;;;;;;;;;;;22.20;77.20;;;;;;6096645;23;19949;-82
2022/06/24 11:55:31;;;;;;;;;;;21.70;79.70;;;;;;6093927;23;19945;-83
2022/06/24 11:58:03;;;;;;;;;;;21.20;81.70;;;;;;6094848;23;20303;-82
2022/06/24 12:00:32;;;;;;;;;;;20.90;83.30;;;;;;6095280;23;19921;-82
2022/06/24 12:02:59;;;;;;;;;;;20.60;85.70;;;;;;6094741;23;19925;-81
2022/06/24 12:05:28;;;;;;;;;;;20.40;86.30;;;;;;6095079;23;19956;-81
2022/06/24 12:07:58;;;;;;;;;;;20.40;88.10;;;;;;6094701;23;19925;-81
2022/06/24 12:10:25;;;;;;;;;;;20.40;89.70;;;;;;6095387;23;19925;-81
2022/06/24 12:13:08;;;;;;;;;;;20.50;89.80;;;;;;6094745;23;19964;-81
2022/06/24 12:15:41;;;;;;;;;;;20.50;89.00;;;;;;6095264;23;19925;-81
2022/06/24 12:18:14;;;;;;;;;;;20.60;89.60;;;;;;6099782;23;19924;-81
2022/06/24 12:20:41;;;;;;;;;;;20.80;90.00;;;;;;6100303;23;19929;-81
2022/06/24 12:23:14;;;;;;;;;;;21.00;90.10;;;;;;6123414;23;19929;-80
2022/06/24 12:25:41;;;;;;;;;;;21.40;89.40;;;;;;6100296;23;19980;-82
2022/06/24 12:28:26;;;;;;;;;;;21.80;88.40;;;;;;6111899;23;19924;-83
2022/06/24 12:31:03;;;;;;;;;;;22.30;86.10;;;;;;6111509;23;19921;-83
2022/06/24 12:33:34;;;;;;;;;;;22.90;84.70;;;;;;6114993;23;19981;-83
2022/06/24 12:36:03;;;;;;;;;;;23.50;80.60;;;;;;6123557;23;19952;-84
2022/06/24 12:38:29;;;;;;;;;;;24.00;76.70;;;;;;6115248;23;19945;-83
2022/06/24 12:41:07;;;;;;;;;;;24.40;76.10;;;;;;6122412;23;20323;-83
2022/06/24 12:43:33;;;;;;;;;;;24.60;74.20;;;;;;6114635;23;19921;-85
2022/06/24 12:46:02;;;;;;;;;;;25.00;70.70;;;;;;6097654;23;19925;-81
2022/06/24 12:51:23;;;;;;;;;;;25.60;71.70;;;;;;6125313;23;20231;-82
2022/06/24 12:53:50;;;;;;;;;;;26.10;70.70;;;;;;6112276;23;19980;-82
2022/06/24 12:56:17;;;;;;;;;;;26.60;68.10;;;;;;6124008;23;19927;-83
2022/06/24 12:58:43;;;;;;;;;;;27.00;67.40;;;;;;6113476;23;19974;-84
2022/06/24 13:01:10;;;;;;;;;;;27.20;63.00;;;;;;6097891;23;19926;-85
2022/06/24 13:03:37;;;;;;;;;;;27.40;61.90;;;;;;6115428;23;19957;-83
2022/06/24 13:06:04;;;;;;;;;;;27.70;62.30;;;;;;6096743;23;19929;-84
2022/06/24 13:08:31;;;;;;;;;;;27.80;60.60;;;;;;6116596;23;19921;-83
2022/06/24 13:10:57;;;;;;;;;;;27.90;58.60;;;;;;6095353;23;19928;-84
2022/06/24 13:13:24;;;;;;;;;;;27.90;57.50;;;;;;6118251;23;19929;-84
2022/06/24 13:15:53;;;;;;;;;;;27.80;58.20;;;;;;6094948;23;20243;-84
2022/06/24 13:18:20;;;;;;;;;;;27.80;56.20;;;;;;6087408;23;19952;-83
2022/06/24 13:20:47;;;;;;;;;;;27.80;57.40;;;;;;6113803;23;20406;-85
2022/06/24 13:23:13;;;;;;;;;;;27.90;56.50;;;;;;6097728;23;19952;-83
2022/06/24 13:25:44;;;;;;;;;;;27.90;54.70;;;;;;6125256;23;19938;-83
2022/06/24 13:28:11;;;;;;;;;;;27.80;53.70;;;;;;6111271;23;19921;-82
2022/06/24 13:30:37;;;;;;;;;;;27.60;56.20;;;;;;6115305;23;19985;-82
2022/06/24 13:33:04;;;;;;;;;;;27.60;54.80;;;;;;6096036;23;19925;-82
2022/06/24 13:35:31;;;;;;;;;;;27.60;54.20;;;;;;6116879;23;20346;-82
2022/06/24 13:37:58;;;;;;;;;;;27.70;52.50;;;;;;6094368;23;19921;-83
2022/06/24 13:40:25;;;;;;;;;;;27.70;52.90;;;;;;6118251;23;19921;-83
2022/06/24 13:42:51;;;;;;;;;;;27.80;54.10;;;;;;6094101;23;19976;-83
2022/06/24 13:45:18;;;;;;;;;;;27.90;52.40;;;;;;6066195;23;19973;-84
2022/06/24 13:47:45;;;;;;;;;;;27.80;52.00;;;;;;6066187;23;19986;-83
2022/06/24 13:50:12;;;;;;;;;;;27.80;51.20;;;;;;6065074;23;19969;-83
2022/06/24 13:52:39;;;;;;;;;;;27.90;52.20;;;;;;6089965;23;19921;-84
2022/06/24 13:55:06;;;;;;;;;;;28.00;51.70;;;;;;6066615;23;19973;-84
2022/06/24 13:57:33;;;;;;;;;;;28.20;51.70;;;;;;6066067;23;19922;-84
2022/06/24 14:00:01;;;;;;;;;;;28.30;48.60;;;;;;6065228;23;20283;-83
2022/06/24 14:02:28;;;;;;;;;;;28.20;48.40;;;;;;6089479;23;19925;-82
2022/06/24 14:04:56;;;;;;;;;;;27.80;48.50;;;;;;6089278;23;19921;-82
2022/06/24 14:07:23;;;;;;;;;;;27.70;49.40;;;;;;6089337;23;19921;-83
2022/06/24 14:09:50;;;;;;;;;;;27.40;50.50;;;;;;6065975;23;19929;-84
2022/06/24 14:12:37;;;;;;;;;;;27.20;48.60;;;;;;6065409;23;20339;-84
2022/06/24 14:15:04;;;;;;;;;;;26.80;48.40;;;;;;6089907;23;20347;-84
2022/06/24 14:17:31;;;;;;;;;;;26.60;48.00;;;;;;6089055;23;19921;-84
2022/06/24 14:20:03;;;;;;;;;;;26.30;48.80;;;;;;6066007;23;19928;-82
2022/06/24 14:22:29;;;;;;;;;;;26.10;49.50;;;;;;6065213;23;19926;-81
2022/06/24 14:24:56;;;;;;;;;;;26.20;52.10;;;;;;6089450;23;19929;-81
2022/06/24 14:27:23;;;;;;;;;;;26.50;53.80;;;;;;6066289;23;19925;-83
2022/06/24 14:29:50;;;;;;;;;;;26.70;54.80;;;;;;6067283;23;20250;-82
2022/06/24 14:32:17;;;;;;;;;;;27.00;57.00;;;;;;6065130;23;20347;-83
2022/06/24 14:34:44;;;;;;;;;;;27.20;56.30;;;;;;6089711;23;19921;-82
2022/06/24 14:40:13;;;;;;;;;;;27.70;54.80;;;;;;6054739;23;19928;-82